3037 6343 lars.toft@ekml.dk

Briefing

Webcam East

Webcam East

Webcam West

Webcam West

Webcam North

Webcam North

METAR for Roskilde:

EKRK 230720Z AUTO 29008KT 9999 SCT014/// 12/08 Q1017

(Denne METAR kommer ikke fra en officiel kilde)

Flyvevejr, Danmark:

METAR / TAF: http://www.dmi.dk/vejr/i-luften/metar-og-taf/
Centralvejrtjenesten: +45 39 15 72 72

Flygmet: https://www.flygmet.dk

NOTAM & Flyveplan:

NOTAM: http://briefing.naviair.dk/map.php?sLan=DK
Flyveplan: http://briefing.naviair.dk/briefing.php?sLan=DK

Afgiv FPL over telefon: Navair: +45 32 47 82 72
Afslut FPL over telefon: Navair: +45 32 46 23 30

Download FPL-Flyveplan: FPL Flyveplan
Vejledning til FPL-Flyveplan: Vejledning_FPL_31JAN2013

Flyvertaktisk Kommando (Restricted, Danger areas): http://www.flv.dk/milais/Navwarframe.html

Download VFR driftsflyveplan: VFR-Driftsflyveplan